createdAt,value
2023-05-22T00:00:40.187Z,816.11
2023-05-22T00:01:40.038Z,816.11
2023-05-22T00:02:40.196Z,816.10
2023-05-22T00:03:40.068Z,816.17
2023-05-22T00:04:40.142Z,816.13
2023-05-22T00:05:40.176Z,816.14
2023-05-22T00:06:40.107Z,816.15
2023-05-22T00:07:40.114Z,816.14
2023-05-22T00:08:40.126Z,816.16
2023-05-22T00:09:40.139Z,816.13
2023-05-22T00:10:40.401Z,816.15
2023-05-22T00:11:40.163Z,816.14
2023-05-22T00:12:40.185Z,816.15
2023-05-22T00:13:40.191Z,816.12
2023-05-22T00:14:40.213Z,816.13
2023-05-22T00:15:40.211Z,816.13
2023-05-22T00:16:40.338Z,816.14
2023-05-22T00:17:40.275Z,816.08
2023-05-22T00:18:40.272Z,816.11
2023-05-22T00:19:40.261Z,816.10
2023-05-22T00:20:40.553Z,816.09
2023-05-22T00:21:40.282Z,816.08
2023-05-22T00:22:40.309Z,816.03
2023-05-22T00:23:40.309Z,816.02
2023-05-22T00:24:40.327Z,816.07
2023-05-22T00:25:40.335Z,816.06
2023-05-22T00:26:40.352Z,816.04
2023-05-22T00:27:40.361Z,816.05
2023-05-22T00:28:40.382Z,816.06
2023-05-22T00:29:40.389Z,816.05
2023-05-22T00:30:40.687Z,816.03
2023-05-22T00:31:40.412Z,816.03
2023-05-22T00:32:40.486Z,816.05
2023-05-22T00:33:40.436Z,816.02
2023-05-22T00:34:40.597Z,816.01
2023-05-22T00:35:40.472Z,816.02
2023-05-22T00:36:40.492Z,816.01
2023-05-22T00:37:40.486Z,815.98
2023-05-22T00:38:40.506Z,815.97
2023-05-22T00:39:40.511Z,815.97
2023-05-22T00:40:40.764Z,815.94
2023-05-22T00:41:40.536Z,815.95
2023-05-22T00:42:40.552Z,815.95
2023-05-22T00:43:40.567Z,816.00
2023-05-22T00:44:40.577Z,815.99
2023-05-22T00:45:40.583Z,815.95
2023-05-22T00:46:40.625Z,816.01
2023-05-22T00:47:40.661Z,815.98
2023-05-22T00:48:40.626Z,815.97
2023-05-22T00:49:40.635Z,815.97
2023-05-22T00:50:40.958Z,815.97
2023-05-22T00:51:40.666Z,815.96
2023-05-22T00:52:40.679Z,815.98
2023-05-22T00:53:40.686Z,815.91
2023-05-22T00:54:40.702Z,815.98
2023-05-22T00:55:40.710Z,815.95
2023-05-22T00:56:40.728Z,815.96
2023-05-22T00:57:40.737Z,815.98
2023-05-22T00:58:40.752Z,815.94
2023-05-22T00:59:40.760Z,815.94
2023-05-22T01:00:41.003Z,815.93
2023-05-22T01:01:40.799Z,815.93
2023-05-22T01:02:40.873Z,815.92
2023-05-22T01:03:40.882Z,815.91
2023-05-22T01:04:40.825Z,815.90
2023-05-22T01:05:40.850Z,815.90
2023-05-22T01:06:40.889Z,815.92
2023-05-22T01:07:40.855Z,815.90
2023-05-22T01:08:40.886Z,815.88
2023-05-22T01:09:40.896Z,815.91
2023-05-22T01:10:41.150Z,815.91
2023-05-22T01:11:40.910Z,815.88
2023-05-22T01:12:40.921Z,815.92
2023-05-22T01:13:40.935Z,815.92
2023-05-22T01:14:40.951Z,815.90
2023-05-22T01:15:40.973Z,815.95
2023-05-22T01:16:41.085Z,815.93
2023-05-22T01:17:41.092Z,815.94
2023-05-22T01:18:40.996Z,815.93
2023-05-22T01:19:41.006Z,815.91
2023-05-22T01:20:41.306Z,815.93
2023-05-22T01:21:41.032Z,815.96
2023-05-22T01:22:41.071Z,815.91
2023-05-22T01:23:41.054Z,815.94
2023-05-22T01:24:41.073Z,815.93
2023-05-22T01:25:41.087Z,815.94
2023-05-22T01:26:41.099Z,815.87
2023-05-22T01:27:41.126Z,815.90
2023-05-22T01:28:41.130Z,815.87
2023-05-22T01:29:41.126Z,815.88
2023-05-22T01:30:41.204Z,815.89
2023-05-22T01:31:41.168Z,815.90
2023-05-22T01:32:41.214Z,815.87
2023-05-22T01:33:41.265Z,815.91
2023-05-22T01:34:41.193Z,815.92
2023-05-22T01:35:41.201Z,815.89
2023-05-22T01:36:41.229Z,815.90
2023-05-22T01:37:41.254Z,815.89
2023-05-22T01:38:41.270Z,815.87
2023-05-22T01:39:41.254Z,815.89
2023-05-22T01:40:41.382Z,815.93
2023-05-22T01:41:41.280Z,815.87
2023-05-22T01:42:41.353Z,815.87
2023-05-22T01:43:41.313Z,815.90
2023-05-22T01:44:41.318Z,815.89
2023-05-22T01:45:41.367Z,815.88
2023-05-22T01:46:41.354Z,815.88
2023-05-22T01:47:41.367Z,815.85
2023-05-22T01:48:41.397Z,815.85
2023-05-22T01:49:41.386Z,815.85
2023-05-22T01:50:41.649Z,815.81
2023-05-22T01:51:41.412Z,815.84
2023-05-22T01:52:41.416Z,815.82
2023-05-22T01:53:41.428Z,815.82
2023-05-22T01:54:41.464Z,815.82
2023-05-22T01:55:41.457Z,815.80
2023-05-22T01:56:41.478Z,815.83
2023-05-22T01:57:41.481Z,815.78
2023-05-22T01:58:41.499Z,815.78
2023-05-22T01:59:41.497Z,815.76
2023-05-22T02:00:41.538Z,815.78
2023-05-22T02:01:41.554Z,815.79
2023-05-22T02:02:41.593Z,815.77
2023-05-22T02:03:41.584Z,815.77
2023-05-22T02:04:41.564Z,815.76
2023-05-22T02:05:41.576Z,815.73
2023-05-22T02:06:41.590Z,815.76
2023-05-22T02:07:41.592Z,815.76
2023-05-22T02:08:41.606Z,815.75
2023-05-22T02:09:41.643Z,815.73
2023-05-22T02:10:41.844Z,815.77
2023-05-22T02:11:41.662Z,815.76
2023-05-22T02:12:41.658Z,815.79
2023-05-22T02:13:41.677Z,815.81
2023-05-22T02:14:41.681Z,815.79
2023-05-22T02:15:41.730Z,815.84
2023-05-22T02:16:41.716Z,815.86
2023-05-22T02:17:41.816Z,815.84
2023-05-22T02:18:41.743Z,815.83
2023-05-22T02:19:41.738Z,815.83
2023-05-22T02:20:41.755Z,815.81
2023-05-22T02:21:41.759Z,815.82
2023-05-22T02:22:41.776Z,815.83
2023-05-22T02:23:41.786Z,815.83
2023-05-22T02:24:41.799Z,815.82
2023-05-22T02:25:41.803Z,815.81
2023-05-22T02:26:41.850Z,815.81
2023-05-22T02:27:41.848Z,815.81
2023-05-22T02:28:41.894Z,815.84
2023-05-22T02:29:41.850Z,815.81
2023-05-22T02:30:41.951Z,815.84
2023-05-22T02:31:41.956Z,815.81
2023-05-22T02:32:41.907Z,815.84
2023-05-22T02:33:41.897Z,815.84
2023-05-22T02:34:41.913Z,815.83
2023-05-22T02:35:41.920Z,815.85
2023-05-22T02:36:41.934Z,815.78
2023-05-22T02:37:41.947Z,815.80
2023-05-22T02:38:41.959Z,815.81
2023-05-22T02:39:41.966Z,815.86
2023-05-22T02:40:42.200Z,815.79
2023-05-22T02:41:41.997Z,815.82
2023-05-22T02:42:42.022Z,815.81
2023-05-22T02:43:42.016Z,815.79
2023-05-22T02:44:42.046Z,815.81
2023-05-22T02:45:42.031Z,815.82
2023-05-22T02:46:42.111Z,815.79
2023-05-22T02:47:42.130Z,815.85
2023-05-22T02:48:42.076Z,815.82
2023-05-22T02:49:42.094Z,815.79
2023-05-22T02:50:42.098Z,815.80
2023-05-22T02:51:42.108Z,815.81
2023-05-22T02:52:42.117Z,815.82
2023-05-22T02:53:42.130Z,815.84
2023-05-22T02:54:42.157Z,815.79
2023-05-22T02:55:42.152Z,815.78
2023-05-22T02:56:42.165Z,815.82
2023-05-22T02:57:42.176Z,815.78
2023-05-22T02:58:42.203Z,815.82
2023-05-22T02:59:42.193Z,815.83
2023-05-22T03:00:42.254Z,815.78
2023-05-22T03:01:42.228Z,815.79
2023-05-22T03:02:42.298Z,815.79
2023-05-22T03:03:42.361Z,815.82
2023-05-22T03:04:42.258Z,815.80
2023-05-22T03:05:42.267Z,815.82
2023-05-22T03:06:42.284Z,815.79
2023-05-22T03:07:42.288Z,815.83
2023-05-22T03:08:42.303Z,815.80
2023-05-22T03:09:42.318Z,815.85
2023-05-22T03:10:42.326Z,815.82
2023-05-22T03:11:42.343Z,815.81
2023-05-22T03:12:42.376Z,815.86
2023-05-22T03:13:42.359Z,815.83
2023-05-22T03:14:42.403Z,815.80
2023-05-22T03:15:42.382Z,815.84
2023-05-22T03:16:42.424Z,815.86
2023-05-22T03:17:42.486Z,815.84
2023-05-22T03:18:42.441Z,815.85
2023-05-22T03:19:42.443Z,815.86
2023-05-22T03:20:42.455Z,815.87
2023-05-22T03:21:42.457Z,815.83
2023-05-22T03:22:42.468Z,815.83
2023-05-22T03:23:42.489Z,815.88
2023-05-22T03:24:42.496Z,815.87
2023-05-22T03:25:42.502Z,815.83
2023-05-22T03:26:42.519Z,815.84
2023-05-22T03:27:42.527Z,815.85
2023-05-22T03:28:42.555Z,815.88
2023-05-22T03:29:42.554Z,815.82
2023-05-22T03:30:42.585Z,815.86
2023-05-22T03:31:42.575Z,815.84
2023-05-22T03:32:42.670Z,815.86
2023-05-22T03:33:42.635Z,815.85
2023-05-22T03:34:42.612Z,815.85
2023-05-22T03:35:42.622Z,815.90
2023-05-22T03:36:42.631Z,815.91
2023-05-22T03:37:42.649Z,815.83
2023-05-22T03:38:42.655Z,815.88
2023-05-22T03:39:42.668Z,815.89
2023-05-22T03:40:42.675Z,815.81
2023-05-22T03:41:42.695Z,815.85
2023-05-22T03:42:42.696Z,815.83
2023-05-22T03:43:44.917Z,815.81
2023-05-22T03:44:42.727Z,815.81
2023-05-22T03:45:42.771Z,815.80
2023-05-22T03:46:42.771Z,815.82
2023-05-22T03:47:42.790Z,815.83
2023-05-22T03:48:42.781Z,815.85
2023-05-22T03:49:42.785Z,815.86
2023-05-22T03:50:42.798Z,815.90
2023-05-22T03:51:42.821Z,815.89
2023-05-22T03:52:42.814Z,815.88
2023-05-22T03:53:42.850Z,815.87
2023-05-22T03:54:42.837Z,815.87
2023-05-22T03:55:42.853Z,815.87
2023-05-22T03:56:42.873Z,815.85
2023-05-22T03:57:42.882Z,815.80
2023-05-22T03:58:42.884Z,815.80
2023-05-22T03:59:42.902Z,815.79
2023-05-22T04:00:42.912Z,815.81
2023-05-22T04:01:42.925Z,815.79
2023-05-22T04:02:43.115Z,815.79
2023-05-22T04:03:42.974Z,815.80
2023-05-22T04:04:42.966Z,815.79
2023-05-22T04:05:42.985Z,815.77
2023-05-22T04:06:43.167Z,815.81
2023-05-22T04:07:43.001Z,815.82
2023-05-22T04:08:43.005Z,815.79
2023-05-22T04:09:43.015Z,815.79
2023-05-22T04:10:43.027Z,815.86
2023-05-22T04:11:43.030Z,815.84
2023-05-22T04:12:43.046Z,815.84
2023-05-22T04:13:43.078Z,815.84
2023-05-22T04:14:43.064Z,815.86
2023-05-22T04:15:43.105Z,815.86
2023-05-22T04:16:43.086Z,815.88
2023-05-22T04:17:43.132Z,815.88
2023-05-22T04:18:43.142Z,815.89
2023-05-22T04:19:43.129Z,815.94
2023-05-22T04:20:43.143Z,815.90
2023-05-22T04:21:43.147Z,815.88
2023-05-22T04:22:43.163Z,815.92
2023-05-22T04:23:43.190Z,815.92
2023-05-22T04:24:43.180Z,815.88
2023-05-22T04:25:43.198Z,815.88
2023-05-22T04:26:43.205Z,815.93
2023-05-22T04:27:43.223Z,815.93
2023-05-22T04:28:43.250Z,815.95
2023-05-22T04:29:43.248Z,815.93
2023-05-22T04:30:43.249Z,815.98
2023-05-22T04:31:43.399Z,815.99
2023-05-22T04:32:43.309Z,815.95
2023-05-22T04:33:43.294Z,815.96
2023-05-22T04:34:43.325Z,815.93
2023-05-22T04:35:43.312Z,815.96
2023-05-22T04:36:43.322Z,815.94
2023-05-22T04:37:43.343Z,815.96
2023-05-22T04:38:43.344Z,815.93
2023-05-22T04:39:43.361Z,815.95
2023-05-22T04:40:43.380Z,815.91
2023-05-22T04:41:43.400Z,815.96
2023-05-22T04:42:43.390Z,815.94
2023-05-22T04:43:43.411Z,815.93
2023-05-22T04:44:43.412Z,815.95
2023-05-22T04:45:43.426Z,816.02
2023-05-22T04:46:43.495Z,816.03
2023-05-22T04:47:43.567Z,816.03
2023-05-22T04:48:43.462Z,816.04
2023-05-22T04:49:43.490Z,816.03
2023-05-22T04:50:43.501Z,816.04
2023-05-22T04:51:43.495Z,816.00
2023-05-22T04:52:43.504Z,815.97
2023-05-22T04:53:43.518Z,816.00
2023-05-22T04:54:43.533Z,816.03
2023-05-22T04:55:43.545Z,816.04
2023-05-22T04:56:43.565Z,815.99
2023-05-22T04:57:43.570Z,816.02
2023-05-22T04:58:43.578Z,816.04
2023-05-22T04:59:43.588Z,816.05
2023-05-22T05:00:43.779Z,816.04
2023-05-22T05:01:43.697Z,815.99
2023-05-22T05:02:43.680Z,816.03
2023-05-22T05:03:43.648Z,816.06
2023-05-22T05:04:43.649Z,816.01
2023-05-22T05:05:43.660Z,816.02
2023-05-22T05:06:43.684Z,816.05
2023-05-22T05:07:43.723Z,816.04
2023-05-22T05:08:43.687Z,816.05
2023-05-22T05:09:43.710Z,816.04
2023-05-22T05:10:43.711Z,816.03
2023-05-22T05:11:43.729Z,816.04
2023-05-22T05:12:43.734Z,816.05
2023-05-22T05:13:43.753Z,816.06
2023-05-22T05:14:43.756Z,816.03
2023-05-22T05:15:43.772Z,816.07
2023-05-22T05:16:43.795Z,816.07
2023-05-22T05:17:43.859Z,816.05
2023-05-22T05:18:43.953Z,816.02
2023-05-22T05:19:43.813Z,816.03
2023-05-22T05:20:43.839Z,816.03
2023-05-22T05:21:43.854Z,816.03
2023-05-22T05:22:43.904Z,816.08
2023-05-22T05:23:43.868Z,816.02
2023-05-22T05:24:43.876Z,816.04
2023-05-22T05:25:43.905Z,816.05
2023-05-22T05:26:43.889Z,816.03
2023-05-22T05:27:43.919Z,816.01
2023-05-22T05:28:43.916Z,816.04
2023-05-22T05:29:43.941Z,816.03
2023-05-22T05:30:43.935Z,816.03
2023-05-22T05:31:43.972Z,816.02
2023-05-22T05:32:44.028Z,816.06
2023-05-22T05:33:43.973Z,816.05
2023-05-22T05:34:43.981Z,816.01
2023-05-22T05:35:44.020Z,816.02
2023-05-22T05:36:44.020Z,816.03
2023-05-22T05:37:44.036Z,816.03
2023-05-22T05:38:44.052Z,816.06
2023-05-22T05:39:44.047Z,816.07
2023-05-22T05:40:44.051Z,816.06
2023-05-22T05:41:44.069Z,816.09
2023-05-22T05:42:44.097Z,816.10
2023-05-22T05:43:44.089Z,816.11
2023-05-22T05:44:44.112Z,816.14
2023-05-22T05:45:44.159Z,816.14
2023-05-22T05:46:44.191Z,816.15
2023-05-22T05:47:44.174Z,816.15
2023-05-22T05:48:44.146Z,816.11
2023-05-22T05:49:44.158Z,816.15
2023-05-22T05:50:44.169Z,816.19
2023-05-22T05:51:44.185Z,816.17
2023-05-22T05:52:44.189Z,816.19
2023-05-22T05:53:44.214Z,816.20
2023-05-22T05:54:44.231Z,816.18
2023-05-22T05:55:44.236Z,816.19
2023-05-22T05:56:44.241Z,816.24
2023-05-22T05:57:44.252Z,816.21
2023-05-22T05:58:44.266Z,816.21
2023-05-22T05:59:44.275Z,816.22
2023-05-22T06:00:44.287Z,816.22
2023-05-22T06:01:44.297Z,816.24
2023-05-22T06:02:44.367Z,816.25
2023-05-22T06:03:44.405Z,816.26
2023-05-22T06:04:44.329Z,816.24
2023-05-22T06:05:44.430Z,816.24
2023-05-22T06:06:44.352Z,816.23
2023-05-22T06:07:44.387Z,816.23
2023-05-22T06:08:44.393Z,816.22
2023-05-22T06:09:44.402Z,816.26
2023-05-22T06:10:44.432Z,816.24
2023-05-22T06:11:44.425Z,816.24
2023-05-22T06:12:44.433Z,816.28
2023-05-22T06:13:44.440Z,816.27
2023-05-22T06:14:44.449Z,816.26
2023-05-22T06:15:44.488Z,816.30
2023-05-22T06:16:44.542Z,816.30
2023-05-22T06:17:44.504Z,816.30
2023-05-22T06:18:44.560Z,816.32
2023-05-22T06:19:44.515Z,816.30
2023-05-22T06:20:44.524Z,816.36
2023-05-22T06:21:44.554Z,816.35
2023-05-22T06:22:44.555Z,816.34
2023-05-22T06:23:44.560Z,816.36
2023-05-22T06:24:44.571Z,816.41
2023-05-22T06:25:44.588Z,816.39
2023-05-22T06:26:44.614Z,816.41
2023-05-22T06:27:44.662Z,816.42
2023-05-22T06:28:44.625Z,816.41
2023-05-22T06:29:44.660Z,816.37
2023-05-22T06:30:44.864Z,816.40
2023-05-22T06:31:44.678Z,816.42
2023-05-22T06:32:44.824Z,816.40
2023-05-22T06:33:44.730Z,816.44
2023-05-22T06:34:44.710Z,816.45
2023-05-22T06:35:44.708Z,816.46
2023-05-22T06:36:44.722Z,816.44
2023-05-22T06:37:44.763Z,816.48
2023-05-22T06:38:44.741Z,816.45
2023-05-22T06:39:44.764Z,816.45
2023-05-22T06:40:44.765Z,816.47
2023-05-22T06:41:44.783Z,816.46
2023-05-22T06:42:44.998Z,816.43
2023-05-22T06:43:44.806Z,816.45
2023-05-22T06:44:44.816Z,816.45
2023-05-22T06:45:44.869Z,816.41
2023-05-22T06:46:44.857Z,816.38
2023-05-22T06:47:44.886Z,816.39
2023-05-22T06:48:44.881Z,816.41
2023-05-22T06:49:44.885Z,816.40
2023-05-22T06:50:44.900Z,816.42
2023-05-22T06:51:44.910Z,816.41
2023-05-22T06:52:44.918Z,816.37
2023-05-22T06:53:44.941Z,816.40
2023-05-22T06:54:44.953Z,816.43
2023-05-22T06:55:44.964Z,816.39
2023-05-22T06:56:44.962Z,816.36
2023-05-22T06:57:44.979Z,816.40
2023-05-22T06:58:45.011Z,816.38
2023-05-22T06:59:45.006Z,816.45
2023-05-22T07:00:45.011Z,816.37
2023-05-22T07:01:45.152Z,816.37
2023-05-22T07:02:45.094Z,816.39
2023-05-22T07:03:45.057Z,816.35
2023-05-22T07:04:45.064Z,816.41
2023-05-22T07:05:45.113Z,816.34
2023-05-22T07:06:45.089Z,816.38
2023-05-22T07:07:45.126Z,816.37
2023-05-22T07:08:45.172Z,816.39
2023-05-22T07:09:45.137Z,816.40
2023-05-22T07:10:45.144Z,816.40
2023-05-22T07:11:45.158Z,816.41
2023-05-22T07:12:45.172Z,816.40
2023-05-22T07:13:45.180Z,816.41
2023-05-22T07:14:45.357Z,816.40
2023-05-22T07:15:46.471Z,816.44
2023-05-22T07:16:45.297Z,816.43
2023-05-22T07:17:45.236Z,816.41
2023-05-22T07:18:45.281Z,816.43
2023-05-22T07:19:45.292Z,816.44
2023-05-22T07:20:45.275Z,816.42
2023-05-22T07:21:45.303Z,816.45
2023-05-22T07:22:45.292Z,816.43
2023-05-22T07:23:45.316Z,816.47
2023-05-22T07:24:45.325Z,816.40
2023-05-22T07:25:45.333Z,816.44
2023-05-22T07:26:45.355Z,816.44
2023-05-22T07:27:45.353Z,816.48
2023-05-22T07:28:45.376Z,816.51
2023-05-22T07:29:45.383Z,816.49
2023-05-22T07:30:45.519Z,816.50
2023-05-22T07:31:45.462Z,816.51
2023-05-22T07:32:45.484Z,816.45
2023-05-22T07:33:45.435Z,816.47
2023-05-22T07:34:45.445Z,816.43
2023-05-22T07:35:45.458Z,816.48
2023-05-22T07:36:45.479Z,816.46
2023-05-22T07:37:45.490Z,816.48
2023-05-22T07:38:45.495Z,816.48
2023-05-22T07:39:45.511Z,816.46
2023-05-22T07:40:45.514Z,816.50
2023-05-22T07:41:45.536Z,816.47
2023-05-22T07:42:45.545Z,816.45
2023-05-22T07:43:45.559Z,816.42
2023-05-22T07:44:45.573Z,816.44
2023-05-22T07:45:45.625Z,816.42
2023-05-22T07:46:45.887Z,816.41
2023-05-22T07:47:45.661Z,816.43
2023-05-22T07:48:45.627Z,816.42
2023-05-22T07:49:45.637Z,816.42
2023-05-22T07:50:45.701Z,816.37
2023-05-22T07:51:45.662Z,816.39
2023-05-22T07:52:45.677Z,816.41
2023-05-22T07:53:45.684Z,816.39
2023-05-22T07:54:45.931Z,816.39
2023-05-22T07:55:45.713Z,816.40
2023-05-22T07:56:45.817Z,816.37
2023-05-22T07:57:45.739Z,816.37
2023-05-22T07:58:45.758Z,816.37
2023-05-22T07:59:45.776Z,816.43
2023-05-22T08:00:45.781Z,816.42
2023-05-22T08:01:45.797Z,816.44
2023-05-22T08:02:46.113Z,816.45
2023-05-22T08:03:45.917Z,816.40
2023-05-22T08:04:45.862Z,816.43
2023-05-22T08:05:46.079Z,816.41
2023-05-22T08:06:45.873Z,816.42
2023-05-22T08:07:45.878Z,816.41
2023-05-22T08:08:45.890Z,816.42
2023-05-22T08:09:45.904Z,816.39
2023-05-22T08:11:02.424Z,816.42
2023-05-22T08:11:45.933Z,816.41
2023-05-22T08:12:45.960Z,816.39
2023-05-22T08:13:45.960Z,816.40
2023-05-22T08:14:45.978Z,816.43
2023-05-22T08:15:45.992Z,816.39
2023-05-22T08:16:46.020Z,816.38
2023-05-22T08:17:46.044Z,816.38
2023-05-22T08:18:46.107Z,816.36
2023-05-22T08:19:46.161Z,816.34
2023-05-22T08:20:46.056Z,816.34
2023-05-22T08:21:46.068Z,816.31
2023-05-22T08:22:46.398Z,816.33
2023-05-22T08:23:46.092Z,816.33
2023-05-22T08:24:46.111Z,816.29
2023-05-22T08:25:46.119Z,816.31
2023-05-22T08:26:46.156Z,816.32
2023-05-22T08:27:46.153Z,816.32
2023-05-22T08:28:46.182Z,816.33
2023-05-22T08:29:46.186Z,816.30
2023-05-22T08:30:46.191Z,816.30
2023-05-22T08:31:46.264Z,816.31
2023-05-22T08:32:46.260Z,816.30
2023-05-22T08:33:46.233Z,816.29
2023-05-22T08:34:46.367Z,816.28
2023-05-22T08:35:46.264Z,816.27
2023-05-22T08:36:46.308Z,816.30
2023-05-22T08:37:46.298Z,816.25
2023-05-22T08:38:46.311Z,816.27
2023-05-22T08:39:46.337Z,816.26
2023-05-22T08:40:46.725Z,816.28
2023-05-22T08:41:46.349Z,816.30
2023-05-22T08:42:46.366Z,816.28
2023-05-22T08:43:46.379Z,816.33
2023-05-22T08:44:46.396Z,816.32
2023-05-22T08:45:46.411Z,816.32
2023-05-22T08:46:46.429Z,816.29
2023-05-22T08:47:46.473Z,816.31
2023-05-22T08:48:46.450Z,816.29
2023-05-22T08:49:46.472Z,816.26
2023-05-22T08:50:46.626Z,816.31
2023-05-22T08:51:46.497Z,816.31
2023-05-22T08:52:46.511Z,816.25
2023-05-22T08:53:46.526Z,816.30
2023-05-22T08:54:46.541Z,816.33
2023-05-22T08:55:46.553Z,816.29
2023-05-22T08:56:56.076Z,816.30
2023-05-22T08:57:46.584Z,816.33
2023-05-22T08:58:46.600Z,816.29
2023-05-22T08:59:46.626Z,816.25
2023-05-22T09:00:46.686Z,816.31
2023-05-22T09:01:46.696Z,816.29
2023-05-22T09:02:46.725Z,816.26
2023-05-22T09:03:46.711Z,816.31
2023-05-22T09:04:46.703Z,816.26
2023-05-22T09:05:46.702Z,816.33
2023-05-22T09:06:46.833Z,816.29
2023-05-22T09:07:46.730Z,816.27
2023-05-22T09:08:46.750Z,816.26
2023-05-22T09:09:46.758Z,816.28
2023-05-22T09:10:46.779Z,816.26
2023-05-22T09:11:46.788Z,816.29
2023-05-22T09:12:46.814Z,816.28
2023-05-22T09:13:46.828Z,816.30
2023-05-22T09:14:46.837Z,816.25
2023-05-22T09:15:46.858Z,816.26
2023-05-22T09:16:46.945Z,816.31
2023-05-22T09:17:46.909Z,816.30
2023-05-22T09:18:46.910Z,816.28
2023-05-22T09:19:46.942Z,816.30
2023-05-22T09:20:46.925Z,816.29
2023-05-22T09:21:47.047Z,816.27
2023-05-22T09:22:47.161Z,816.28
2023-05-22T09:23:46.972Z,816.30
2023-05-22T09:24:47.025Z,816.29
2023-05-22T09:25:47.009Z,816.35
2023-05-22T09:26:47.017Z,816.34
2023-05-22T09:27:47.026Z,816.36
2023-05-22T09:28:47.050Z,816.36
2023-05-22T09:29:47.064Z,816.33
2023-05-22T09:30:47.138Z,816.34
2023-05-22T09:31:47.256Z,816.34
2023-05-22T09:32:47.140Z,816.33
2023-05-22T09:33:47.120Z,816.33
2023-05-22T09:34:47.140Z,816.32
2023-05-22T09:35:47.169Z,816.28
2023-05-22T09:36:47.179Z,816.40
2023-05-22T09:37:47.179Z,816.38
2023-05-22T09:38:47.305Z,816.37
2023-05-22T09:39:47.207Z,816.34
2023-05-22T09:40:47.234Z,816.38
2023-05-22T09:41:47.244Z,816.34
2023-05-22T09:42:47.261Z,816.33
2023-05-22T09:43:47.268Z,816.32
2023-05-22T09:44:47.287Z,816.31
2023-05-22T09:45:47.305Z,816.37
2023-05-22T09:46:47.637Z,816.37
2023-05-22T09:47:47.385Z,816.43
2023-05-22T09:48:47.359Z,816.33
2023-05-22T09:49:47.360Z,816.35
2023-05-22T09:50:47.377Z,816.39
2023-05-22T09:51:47.389Z,816.44
2023-05-22T09:52:47.414Z,816.42
2023-05-22T09:53:47.427Z,816.44
2023-05-22T09:54:47.468Z,816.41
2023-05-22T09:55:47.453Z,816.45
2023-05-22T09:56:47.473Z,816.43
2023-05-22T09:57:47.493Z,816.44
2023-05-22T09:58:47.505Z,816.41
2023-05-22T09:59:47.518Z,816.36
2023-05-22T10:00:47.543Z,816.36
2023-05-22T10:01:47.630Z,816.39
2023-05-22T10:02:47.614Z,816.36
2023-05-22T10:03:49.444Z,816.39
2023-05-22T10:04:47.752Z,816.36
2023-05-22T10:05:47.614Z,816.43
2023-05-22T10:06:47.640Z,816.38
2023-05-22T10:07:47.645Z,816.38
2023-05-22T10:08:47.670Z,816.39
2023-05-22T10:09:47.673Z,816.41
2023-05-22T10:10:47.719Z,816.39
2023-05-22T10:11:47.708Z,816.38
2023-05-22T10:12:47.726Z,816.35
2023-05-22T10:13:47.741Z,816.36
2023-05-22T10:14:47.758Z,816.32
2023-05-22T10:15:47.808Z,816.35
2023-05-22T10:16:47.795Z,816.39
2023-05-22T10:17:47.850Z,816.37
2023-05-22T10:18:47.847Z,816.35
2023-05-22T10:19:47.867Z,816.28
2023-05-22T10:20:47.867Z,816.33
2023-05-22T10:21:47.867Z,816.28
2023-05-22T10:22:47.888Z,816.34
2023-05-22T10:23:47.901Z,816.32
2023-05-22T10:24:47.918Z,816.32
2023-05-22T10:25:47.930Z,816.34
2023-05-22T10:26:48.069Z,816.27
2023-05-22T10:27:47.964Z,816.32
2023-05-22T10:28:47.989Z,816.32
2023-05-22T10:29:47.994Z,816.33
2023-05-22T10:30:48.010Z,816.36
2023-05-22T10:31:48.025Z,816.35
2023-05-22T10:32:48.069Z,816.35
2023-05-22T10:33:48.119Z,816.35
2023-05-22T10:34:48.083Z,816.34
2023-05-22T10:35:48.084Z,816.40
2023-05-22T10:36:48.399Z,816.34
2023-05-22T10:37:48.121Z,816.37
2023-05-22T10:38:48.152Z,816.37
2023-05-22T10:39:48.150Z,816.34
2023-05-22T10:40:48.496Z,816.36
2023-05-22T10:41:48.188Z,816.34
2023-05-22T10:42:48.317Z,816.39
2023-05-22T10:43:48.230Z,816.41
2023-05-22T10:44:48.235Z,816.36
2023-05-22T10:45:48.350Z,816.36
2023-05-22T10:46:48.277Z,816.36
2023-05-22T10:47:48.318Z,816.40
2023-05-22T10:48:48.317Z,816.37
2023-05-22T10:49:48.316Z,816.34
2023-05-22T10:50:48.335Z,816.36
2023-05-22T10:51:48.347Z,816.37
2023-05-22T10:52:48.364Z,816.34
2023-05-22T10:53:48.384Z,816.36
2023-05-22T10:54:48.399Z,816.35
2023-05-22T10:55:48.413Z,816.35
2023-05-22T10:56:48.448Z,816.34
2023-05-22T10:57:48.449Z,816.35
2023-05-22T10:58:48.586Z,816.33
2023-05-22T10:59:48.494Z,816.35
2023-05-22T11:00:48.501Z,816.31
2023-05-22T11:01:48.605Z,816.30
2023-05-22T11:02:48.587Z,816.30
2023-05-22T11:03:48.571Z,816.28
2023-05-22T11:04:48.604Z,816.28
2023-05-22T11:05:48.575Z,816.26
2023-05-22T11:06:48.593Z,816.24
2023-05-22T11:07:48.604Z,816.29
2023-05-22T11:08:48.638Z,816.26
2023-05-22T11:09:48.926Z,816.26
2023-05-22T11:10:48.658Z,816.28
2023-05-22T11:11:48.677Z,816.26
2023-05-22T11:12:48.699Z,816.27
2023-05-22T11:13:48.706Z,816.22
2023-05-22T11:14:48.849Z,816.26
2023-05-22T11:15:48.743Z,816.28
2023-05-22T11:16:48.820Z,816.29
2023-05-22T11:17:48.795Z,816.31
2023-05-22T11:18:48.824Z,816.25
2023-05-22T11:19:48.954Z,816.27
2023-05-22T11:20:48.827Z,816.24
2023-05-22T11:21:48.840Z,816.27
2023-05-22T11:22:48.854Z,816.28
2023-05-22T11:23:48.863Z,816.20
2023-05-22T11:24:48.886Z,816.23
2023-05-22T11:25:48.904Z,816.19
2023-05-22T11:26:48.919Z,816.20
2023-05-22T11:27:48.941Z,816.20
2023-05-22T11:28:48.949Z,816.17
2023-05-22T11:29:48.969Z,816.19
2023-05-22T11:30:49.115Z,816.15
2023-05-22T11:31:49.000Z,816.19
2023-05-22T11:32:49.032Z,816.17
2023-05-22T11:33:49.030Z,816.16
2023-05-22T11:34:49.053Z,816.18
2023-05-22T11:35:49.063Z,816.14
2023-05-22T11:36:49.079Z,816.20
2023-05-22T11:37:49.116Z,816.16
2023-05-22T11:38:49.125Z,816.18
2023-05-22T11:39:49.132Z,816.18
2023-05-22T11:40:49.146Z,816.17
2023-05-22T11:41:49.159Z,816.17
2023-05-22T11:42:49.182Z,816.18
2023-05-22T11:43:49.192Z,816.18
2023-05-22T11:44:49.212Z,816.16
2023-05-22T11:45:49.227Z,816.16
2023-05-22T11:46:49.441Z,816.17
2023-05-22T11:47:49.318Z,816.11
2023-05-22T11:48:49.286Z,816.15
2023-05-22T11:49:49.290Z,816.12
2023-05-22T11:50:49.490Z,816.11
2023-05-22T11:51:49.321Z,816.07
2023-05-22T11:52:49.343Z,816.05
2023-05-22T11:53:49.360Z,816.11
2023-05-22T11:54:49.380Z,816.11
2023-05-22T11:55:49.383Z,816.07
2023-05-22T11:56:49.409Z,816.10
2023-05-22T11:57:49.415Z,816.06
2023-05-22T11:58:49.447Z,816.02
2023-05-22T11:59:49.450Z,815.98
2023-05-22T12:00:49.502Z,816.03
2023-05-22T12:01:49.487Z,815.97
2023-05-22T12:02:49.703Z,816.03
2023-05-22T12:03:49.597Z,816.06
2023-05-22T12:04:49.529Z,816.04
2023-05-22T12:05:49.548Z,815.99
2023-05-22T12:06:49.596Z,815.95
2023-05-22T12:07:49.580Z,815.87
2023-05-22T12:08:49.602Z,815.90
2023-05-22T12:09:49.629Z,815.86
2023-05-22T12:10:49.633Z,815.92
2023-05-22T12:11:49.648Z,815.89
2023-05-22T12:12:49.676Z,816.04
2023-05-22T12:13:49.685Z,815.87
2023-05-22T12:14:49.700Z,815.96
2023-05-22T12:15:49.718Z,815.97
2023-05-22T12:16:49.765Z,815.94
2023-05-22T12:17:49.840Z,815.99
2023-05-22T12:18:49.957Z,816.02
2023-05-22T12:19:49.789Z,816.00
2023-05-22T12:20:49.826Z,816.03
2023-05-22T12:21:49.829Z,816.00
2023-05-22T12:22:49.839Z,816.04
2023-05-22T12:23:49.865Z,816.05
2023-05-22T12:24:49.870Z,815.99
2023-05-22T12:25:49.893Z,816.02
2023-05-22T12:26:49.908Z,816.01
2023-05-22T12:27:49.927Z,816.00
2023-05-22T12:28:49.970Z,815.99